sensor_id;sensor_type;location;lat;lon;timestamp;P1;durP1;ratioP1;P2;durP2;ratioP2
11616;SDS011;5864;52.998;9.068;2022-12-11T00:00:03;18.25;;;10.70;;
11616;SDS011;5864;52.998;9.068;2022-12-11T00:02:33;18.58;;;10.70;;
11616;SDS011;5864;52.998;9.068;2022-12-11T00:05:01;17.75;;;10.90;;
11616;SDS011;5864;52.998;9.068;2022-12-11T00:07:28;18.60;;;11.15;;
11616;SDS011;5864;52.998;9.068;2022-12-11T00:09:56;17.13;;;10.82;;
11616;SDS011;5864;52.998;9.068;2022-12-11T00:12:24;19.67;;;12.18;;
11616;SDS011;5864;52.998;9.068;2022-12-11T00:14:51;16.65;;;10.45;;
11616;SDS011;5864;52.998;9.068;2022-12-11T00:17:18;19.40;;;10.75;;
11616;SDS011;5864;52.998;9.068;2022-12-11T00:19:47;16.65;;;10.25;;
11616;SDS011;5864;52.998;9.068;2022-12-11T00:22:15;17.75;;;10.45;;
11616;SDS011;5864;52.998;9.068;2022-12-11T00:24:42;16.40;;;10.45;;
11616;SDS011;5864;52.998;9.068;2022-12-11T00:27:10;15.20;;;10.48;;
11616;SDS011;5864;52.998;9.068;2022-12-11T00:29:37;17.63;;;10.60;;
11616;SDS011;5864;52.998;9.068;2022-12-11T00:32:05;17.90;;;10.20;;
11616;SDS011;5864;52.998;9.068;2022-12-11T00:34:32;17.95;;;10.55;;
11616;SDS011;5864;52.998;9.068;2022-12-11T00:37:01;18.10;;;10.75;;
11616;SDS011;5864;52.998;9.068;2022-12-11T00:39:29;15.80;;;9.98;;
11616;SDS011;5864;52.998;9.068;2022-12-11T00:41:56;18.20;;;10.80;;
11616;SDS011;5864;52.998;9.068;2022-12-11T00:44:24;14.40;;;9.40;;
11616;SDS011;5864;52.998;9.068;2022-12-11T00:46:51;18.98;;;10.88;;
11616;SDS011;5864;52.998;9.068;2022-12-11T00:49:18;15.68;;;10.15;;
11616;SDS011;5864;52.998;9.068;2022-12-11T00:51:46;17.38;;;11.13;;
11616;SDS011;5864;52.998;9.068;2022-12-11T00:54:15;17.67;;;10.48;;
11616;SDS011;5864;52.998;9.068;2022-12-11T00:56:42;18.42;;;10.88;;
11616;SDS011;5864;52.998;9.068;2022-12-11T00:59:10;17.63;;;9.82;;
11616;SDS011;5864;52.998;9.068;2022-12-11T01:01:38;16.08;;;10.15;;
11616;SDS011;5864;52.998;9.068;2022-12-11T01:04:05;15.75;;;10.70;;
11616;SDS011;5864;52.998;9.068;2022-12-11T01:06:33;15.30;;;9.32;;
11616;SDS011;5864;52.998;9.068;2022-12-11T01:09:00;18.30;;;11.15;;
11616;SDS011;5864;52.998;9.068;2022-12-11T01:11:46;19.50;;;10.85;;
11616;SDS011;5864;52.998;9.068;2022-12-11T01:14:14;18.45;;;10.25;;
11616;SDS011;5864;52.998;9.068;2022-12-11T01:16:42;17.48;;;11.25;;
11616;SDS011;5864;52.998;9.068;2022-12-11T01:19:09;16.98;;;10.20;;
11616;SDS011;5864;52.998;9.068;2022-12-11T01:21:37;16.60;;;9.77;;
11616;SDS011;5864;52.998;9.068;2022-12-11T01:24:04;19.77;;;11.07;;
11616;SDS011;5864;52.998;9.068;2022-12-11T01:26:32;19.33;;;10.35;;
11616;SDS011;5864;52.998;9.068;2022-12-11T01:29:01;14.48;;;9.68;;
11616;SDS011;5864;52.998;9.068;2022-12-11T01:31:29;12.45;;;8.80;;
11616;SDS011;5864;52.998;9.068;2022-12-11T01:33:56;15.60;;;9.88;;
11616;SDS011;5864;52.998;9.068;2022-12-11T01:36:24;16.58;;;9.73;;
11616;SDS011;5864;52.998;9.068;2022-12-11T01:38:54;19.73;;;10.68;;
11616;SDS011;5864;52.998;9.068;2022-12-11T01:41:22;15.07;;;10.38;;
11616;SDS011;5864;52.998;9.068;2022-12-11T01:43:56;19.08;;;11.38;;
11616;SDS011;5864;52.998;9.068;2022-12-11T01:46:27;17.92;;;10.95;;
11616;SDS011;5864;52.998;9.068;2022-12-11T01:48:56;16.50;;;11.32;;
11616;SDS011;5864;52.998;9.068;2022-12-11T01:51:24;19.17;;;10.80;;
11616;SDS011;5864;52.998;9.068;2022-12-11T01:53:55;17.60;;;10.65;;
11616;SDS011;5864;52.998;9.068;2022-12-11T01:56:26;19.42;;;11.43;;
11616;SDS011;5864;52.998;9.068;2022-12-11T01:58:59;16.40;;;10.18;;
11616;SDS011;5864;52.998;9.068;2022-12-11T02:01:33;18.77;;;10.65;;
11616;SDS011;5864;52.998;9.068;2022-12-11T02:04:03;18.73;;;11.02;;
11616;SDS011;5864;52.998;9.068;2022-12-11T02:06:33;17.30;;;10.68;;
11616;SDS011;5864;52.998;9.068;2022-12-11T02:09:04;18.33;;;10.90;;
11616;SDS011;5864;52.998;9.068;2022-12-11T02:11:38;16.55;;;10.57;;
11616;SDS011;5864;52.998;9.068;2022-12-11T02:14:15;16.88;;;10.02;;
11616;SDS011;5864;52.998;9.068;2022-12-11T02:16:52;19.05;;;11.02;;
11616;SDS011;5864;52.998;9.068;2022-12-11T02:19:30;18.10;;;10.38;;
11616;SDS011;5864;52.998;9.068;2022-12-11T02:22:10;18.25;;;10.68;;
11616;SDS011;5864;52.998;9.068;2022-12-11T02:24:46;17.40;;;10.57;;
11616;SDS011;5864;52.998;9.068;2022-12-11T02:27:26;18.10;;;10.13;;
11616;SDS011;5864;52.998;9.068;2022-12-11T02:30:03;18.88;;;11.43;;
11616;SDS011;5864;52.998;9.068;2022-12-11T02:32:34;18.55;;;11.20;;
11616;SDS011;5864;52.998;9.068;2022-12-11T02:35:08;19.05;;;11.02;;
11616;SDS011;5864;52.998;9.068;2022-12-11T02:37:40;20.40;;;10.93;;
11616;SDS011;5864;52.998;9.068;2022-12-11T02:40:11;19.58;;;11.63;;
11616;SDS011;5864;52.998;9.068;2022-12-11T02:42:41;18.00;;;10.77;;
11616;SDS011;5864;52.998;9.068;2022-12-11T02:45:14;21.17;;;11.13;;
11616;SDS011;5864;52.998;9.068;2022-12-11T02:47:43;19.50;;;10.98;;
11616;SDS011;5864;52.998;9.068;2022-12-11T02:50:14;15.90;;;11.10;;
11616;SDS011;5864;52.998;9.068;2022-12-11T02:52:45;17.33;;;11.63;;
11616;SDS011;5864;52.998;9.068;2022-12-11T02:55:16;16.70;;;10.20;;
11616;SDS011;5864;52.998;9.068;2022-12-11T02:57:45;18.90;;;11.25;;
11616;SDS011;5864;52.998;9.068;2022-12-11T03:00:17;18.40;;;10.70;;
11616;SDS011;5864;52.998;9.068;2022-12-11T03:02:45;20.08;;;11.48;;
11616;SDS011;5864;52.998;9.068;2022-12-11T03:05:13;17.92;;;11.02;;
11616;SDS011;5864;52.998;9.068;2022-12-11T03:07:42;18.90;;;10.38;;
11616;SDS011;5864;52.998;9.068;2022-12-11T03:10:11;17.25;;;10.82;;
11616;SDS011;5864;52.998;9.068;2022-12-11T03:12:41;16.40;;;9.82;;
11616;SDS011;5864;52.998;9.068;2022-12-11T03:15:14;18.33;;;11.05;;
11616;SDS011;5864;52.998;9.068;2022-12-11T03:17:48;18.40;;;10.57;;
11616;SDS011;5864;52.998;9.068;2022-12-11T03:20:25;18.15;;;11.68;;
11616;SDS011;5864;52.998;9.068;2022-12-11T03:23:01;20.30;;;11.85;;
11616;SDS011;5864;52.998;9.068;2022-12-11T03:25:34;19.90;;;10.80;;
11616;SDS011;5864;52.998;9.068;2022-12-11T03:28:09;20.45;;;11.40;;
11616;SDS011;5864;52.998;9.068;2022-12-11T03:30:40;19.38;;;10.95;;
11616;SDS011;5864;52.998;9.068;2022-12-11T03:33:12;17.23;;;10.55;;
11616;SDS011;5864;52.998;9.068;2022-12-11T03:35:45;19.50;;;11.35;;
11616;SDS011;5864;52.998;9.068;2022-12-11T03:38:18;19.67;;;10.63;;
11616;SDS011;5864;52.998;9.068;2022-12-11T03:40:49;17.85;;;10.65;;
11616;SDS011;5864;52.998;9.068;2022-12-11T03:43:20;19.98;;;11.00;;
11616;SDS011;5864;52.998;9.068;2022-12-11T03:45:49;18.90;;;11.10;;
11616;SDS011;5864;52.998;9.068;2022-12-11T03:48:19;20.30;;;11.18;;
11616;SDS011;5864;52.998;9.068;2022-12-11T03:50:48;19.05;;;11.48;;
11616;SDS011;5864;52.998;9.068;2022-12-11T03:53:16;18.10;;;11.23;;
11616;SDS011;5864;52.998;9.068;2022-12-11T03:55:46;19.85;;;11.60;;
11616;SDS011;5864;52.998;9.068;2022-12-11T03:58:15;19.38;;;11.52;;
11616;SDS011;5864;52.998;9.068;2022-12-11T04:00:42;19.48;;;11.18;;
11616;SDS011;5864;52.998;9.068;2022-12-11T04:03:11;18.73;;;10.88;;
11616;SDS011;5864;52.998;9.068;2022-12-11T04:05:39;18.17;;;10.50;;
11616;SDS011;5864;52.998;9.068;2022-12-11T04:08:07;19.65;;;11.23;;
11616;SDS011;5864;52.998;9.068;2022-12-11T04:10:34;17.95;;;11.23;;
11616;SDS011;5864;52.998;9.068;2022-12-11T04:13:02;19.40;;;11.85;;
11616;SDS011;5864;52.998;9.068;2022-12-11T04:15:29;17.42;;;11.45;;
11616;SDS011;5864;52.998;9.068;2022-12-11T04:17:56;19.65;;;11.05;;
11616;SDS011;5864;52.998;9.068;2022-12-11T04:20:42;19.33;;;10.63;;
11616;SDS011;5864;52.998;9.068;2022-12-11T04:23:27;17.77;;;11.35;;
11616;SDS011;5864;52.998;9.068;2022-12-11T04:26:13;19.05;;;11.23;;
11616;SDS011;5864;52.998;9.068;2022-12-11T04:28:43;19.58;;;11.02;;
11616;SDS011;5864;52.998;9.068;2022-12-11T04:31:11;18.83;;;10.93;;
11616;SDS011;5864;52.998;9.068;2022-12-11T04:33:39;19.35;;;10.93;;
11616;SDS011;5864;52.998;9.068;2022-12-11T04:36:09;18.63;;;10.32;;
11616;SDS011;5864;52.998;9.068;2022-12-11T04:38:37;18.77;;;10.50;;
11616;SDS011;5864;52.998;9.068;2022-12-11T04:41:06;18.65;;;10.45;;
11616;SDS011;5864;52.998;9.068;2022-12-11T04:43:34;21.67;;;10.68;;
11616;SDS011;5864;52.998;9.068;2022-12-11T04:46:02;21.30;;;10.77;;
11616;SDS011;5864;52.998;9.068;2022-12-11T04:48:31;16.40;;;10.05;;
11616;SDS011;5864;52.998;9.068;2022-12-11T04:50:58;16.48;;;10.63;;
11616;SDS011;5864;52.998;9.068;2022-12-11T04:53:27;18.80;;;10.73;;
11616;SDS011;5864;52.998;9.068;2022-12-11T04:55:55;19.45;;;11.02;;
11616;SDS011;5864;52.998;9.068;2022-12-11T04:58:22;20.95;;;11.30;;
11616;SDS011;5864;52.998;9.068;2022-12-11T05:00:50;21.48;;;11.80;;
11616;SDS011;5864;52.998;9.068;2022-12-11T05:03:18;19.02;;;10.82;;
11616;SDS011;5864;52.998;9.068;2022-12-11T05:05:46;20.48;;;11.43;;
11616;SDS011;5864;52.998;9.068;2022-12-11T05:08:15;16.85;;;11.20;;
11616;SDS011;5864;52.998;9.068;2022-12-11T05:10:44;16.40;;;9.77;;
11616;SDS011;5864;52.998;9.068;2022-12-11T05:13:20;18.58;;;11.45;;
11616;SDS011;5864;52.998;9.068;2022-12-11T05:15:47;20.35;;;10.95;;
11616;SDS011;5864;52.998;9.068;2022-12-11T05:18:15;17.60;;;10.40;;
11616;SDS011;5864;52.998;9.068;2022-12-11T05:20:42;17.88;;;10.77;;
11616;SDS011;5864;52.998;9.068;2022-12-11T05:23:10;17.42;;;10.27;;
11616;SDS011;5864;52.998;9.068;2022-12-11T05:25:37;19.73;;;10.93;;
11616;SDS011;5864;52.998;9.068;2022-12-11T05:28:06;16.40;;;10.43;;
11616;SDS011;5864;52.998;9.068;2022-12-11T05:30:33;15.75;;;10.05;;
11616;SDS011;5864;52.998;9.068;2022-12-11T05:33:01;19.95;;;10.70;;
11616;SDS011;5864;52.998;9.068;2022-12-11T05:35:28;18.25;;;10.35;;
11616;SDS011;5864;52.998;9.068;2022-12-11T05:37:56;18.23;;;10.65;;
11616;SDS011;5864;52.998;9.068;2022-12-11T05:40:24;16.63;;;10.02;;
11616;SDS011;5864;52.998;9.068;2022-12-11T05:42:53;18.85;;;11.57;;
11616;SDS011;5864;52.998;9.068;2022-12-11T05:45:22;18.38;;;11.40;;
11616;SDS011;5864;52.998;9.068;2022-12-11T05:47:49;19.35;;;11.82;;
11616;SDS011;5864;52.998;9.068;2022-12-11T05:50:17;17.77;;;10.75;;
11616;SDS011;5864;52.998;9.068;2022-12-11T05:52:44;19.88;;;10.23;;
11616;SDS011;5864;52.998;9.068;2022-12-11T05:55:12;17.67;;;10.52;;
11616;SDS011;5864;52.998;9.068;2022-12-11T05:57:40;16.92;;;10.00;;
11616;SDS011;5864;52.998;9.068;2022-12-11T06:00:08;19.33;;;10.93;;
11616;SDS011;5864;52.998;9.068;2022-12-11T06:02:39;18.83;;;10.05;;
11616;SDS011;5864;52.998;9.068;2022-12-11T06:05:06;17.38;;;10.40;;
11616;SDS011;5864;52.998;9.068;2022-12-11T06:07:37;19.80;;;10.77;;
11616;SDS011;5864;52.998;9.068;2022-12-11T06:10:04;17.23;;;10.35;;
11616;SDS011;5864;52.998;9.068;2022-12-11T06:12:32;18.38;;;10.05;;
11616;SDS011;5864;52.998;9.068;2022-12-11T06:15:00;18.75;;;10.65;;
11616;SDS011;5864;52.998;9.068;2022-12-11T06:17:29;18.33;;;10.05;;
11616;SDS011;5864;52.998;9.068;2022-12-11T06:19:58;21.17;;;11.43;;
11616;SDS011;5864;52.998;9.068;2022-12-11T06:22:26;19.95;;;10.80;;
11616;SDS011;5864;52.998;9.068;2022-12-11T06:24:53;18.42;;;10.05;;
11616;SDS011;5864;52.998;9.068;2022-12-11T06:27:20;18.85;;;9.88;;
11616;SDS011;5864;52.998;9.068;2022-12-11T06:29:48;19.33;;;10.55;;
11616;SDS011;5864;52.998;9.068;2022-12-11T06:32:15;17.88;;;10.35;;
11616;SDS011;5864;52.998;9.068;2022-12-11T06:34:43;16.92;;;9.98;;
11616;SDS011;5864;52.998;9.068;2022-12-11T06:37:12;20.05;;;10.30;;
11616;SDS011;5864;52.998;9.068;2022-12-11T06:39:39;18.08;;;10.23;;
11616;SDS011;5864;52.998;9.068;2022-12-11T06:42:07;17.77;;;10.13;;
11616;SDS011;5864;52.998;9.068;2022-12-11T06:44:34;16.60;;;10.20;;
11616;SDS011;5864;52.998;9.068;2022-12-11T06:47:02;16.65;;;10.45;;
11616;SDS011;5864;52.998;9.068;2022-12-11T06:49:29;20.27;;;10.27;;
11616;SDS011;5864;52.998;9.068;2022-12-11T06:51:57;17.42;;;10.25;;
11616;SDS011;5864;52.998;9.068;2022-12-11T06:54:26;22.13;;;11.10;;
11616;SDS011;5864;52.998;9.068;2022-12-11T06:56:53;18.13;;;10.45;;
11616;SDS011;5864;52.998;9.068;2022-12-11T06:59:21;17.95;;;10.77;;
11616;SDS011;5864;52.998;9.068;2022-12-11T07:01:48;17.63;;;10.55;;
11616;SDS011;5864;52.998;9.068;2022-12-11T07:04:16;18.40;;;10.20;;
11616;SDS011;5864;52.998;9.068;2022-12-11T07:06:43;18.08;;;10.55;;
11616;SDS011;5864;52.998;9.068;2022-12-11T07:09:12;18.42;;;10.68;;
11616;SDS011;5864;52.998;9.068;2022-12-11T07:11:40;18.67;;;11.13;;
11616;SDS011;5864;52.998;9.068;2022-12-11T07:14:08;20.02;;;10.30;;
11616;SDS011;5864;52.998;9.068;2022-12-11T07:16:35;17.92;;;9.77;;
11616;SDS011;5864;52.998;9.068;2022-12-11T07:19:03;20.45;;;10.95;;
11616;SDS011;5864;52.998;9.068;2022-12-11T07:21:31;20.58;;;10.65;;
11616;SDS011;5864;52.998;9.068;2022-12-11T07:23:58;20.25;;;10.27;;
11616;SDS011;5864;52.998;9.068;2022-12-11T07:26:26;18.48;;;10.75;;
11616;SDS011;5864;52.998;9.068;2022-12-11T07:28:56;17.60;;;9.95;;
11616;SDS011;5864;52.998;9.068;2022-12-11T07:31:26;19.75;;;11.20;;
11616;SDS011;5864;52.998;9.068;2022-12-11T07:33:55;22.83;;;10.45;;
11616;SDS011;5864;52.998;9.068;2022-12-11T07:36:23;20.27;;;11.02;;
11616;SDS011;5864;52.998;9.068;2022-12-11T07:38:52;20.67;;;11.18;;
11616;SDS011;5864;52.998;9.068;2022-12-11T07:41:20;18.85;;;11.13;;
11616;SDS011;5864;52.998;9.068;2022-12-11T07:43:48;19.25;;;11.02;;
11616;SDS011;5864;52.998;9.068;2022-12-11T07:46:18;20.55;;;11.05;;
11616;SDS011;5864;52.998;9.068;2022-12-11T07:48:47;19.42;;;11.13;;
11616;SDS011;5864;52.998;9.068;2022-12-11T07:51:15;19.17;;;10.65;;
11616;SDS011;5864;52.998;9.068;2022-12-11T07:53:44;19.73;;;11.10;;
11616;SDS011;5864;52.998;9.068;2022-12-11T07:56:13;23.13;;;11.68;;
11616;SDS011;5864;52.998;9.068;2022-12-11T07:58:42;21.75;;;11.35;;
11616;SDS011;5864;52.998;9.068;2022-12-11T08:01:09;20.63;;;10.15;;
11616;SDS011;5864;52.998;9.068;2022-12-11T08:03:39;21.10;;;10.60;;
11616;SDS011;5864;52.998;9.068;2022-12-11T08:06:07;18.90;;;11.02;;
11616;SDS011;5864;52.998;9.068;2022-12-11T08:08:36;19.02;;;11.60;;
11616;SDS011;5864;52.998;9.068;2022-12-11T08:11:04;22.15;;;11.95;;
11616;SDS011;5864;52.998;9.068;2022-12-11T08:13:33;20.60;;;11.10;;
11616;SDS011;5864;52.998;9.068;2022-12-11T08:16:02;21.23;;;11.88;;
11616;SDS011;5864;52.998;9.068;2022-12-11T08:18:30;24.88;;;12.15;;
11616;SDS011;5864;52.998;9.068;2022-12-11T08:21:03;23.63;;;11.80;;
11616;SDS011;5864;52.998;9.068;2022-12-11T08:23:31;20.58;;;11.43;;
11616;SDS011;5864;52.998;9.068;2022-12-11T08:25:58;20.58;;;11.95;;
11616;SDS011;5864;52.998;9.068;2022-12-11T08:28:27;20.50;;;11.30;;
11616;SDS011;5864;52.998;9.068;2022-12-11T08:30:55;21.02;;;12.30;;
11616;SDS011;5864;52.998;9.068;2022-12-11T08:33:23;21.05;;;11.57;;
11616;SDS011;5864;52.998;9.068;2022-12-11T08:35:51;22.50;;;12.18;;
11616;SDS011;5864;52.998;9.068;2022-12-11T08:38:19;20.35;;;10.95;;
11616;SDS011;5864;52.998;9.068;2022-12-11T08:40:47;21.27;;;11.90;;
11616;SDS011;5864;52.998;9.068;2022-12-11T08:43:17;21.08;;;11.77;;
11616;SDS011;5864;52.998;9.068;2022-12-11T08:45:44;20.90;;;11.57;;
11616;SDS011;5864;52.998;9.068;2022-12-11T08:48:12;26.27;;;12.30;;
11616;SDS011;5864;52.998;9.068;2022-12-11T08:50:39;21.60;;;11.75;;
11616;SDS011;5864;52.998;9.068;2022-12-11T08:53:07;24.83;;;12.27;;
11616;SDS011;5864;52.998;9.068;2022-12-11T08:55:36;20.33;;;12.05;;
11616;SDS011;5864;52.998;9.068;2022-12-11T08:58:03;23.63;;;11.63;;
11616;SDS011;5864;52.998;9.068;2022-12-11T09:00:31;22.77;;;12.23;;
11616;SDS011;5864;52.998;9.068;2022-12-11T09:02:58;22.05;;;11.63;;
11616;SDS011;5864;52.998;9.068;2022-12-11T09:05:26;21.58;;;11.90;;
11616;SDS011;5864;52.998;9.068;2022-12-11T09:07:54;21.27;;;11.38;;
11616;SDS011;5864;52.998;9.068;2022-12-11T09:10:21;24.17;;;12.57;;
11616;SDS011;5864;52.998;9.068;2022-12-11T09:12:50;20.17;;;11.55;;
11616;SDS011;5864;52.998;9.068;2022-12-11T09:15:17;23.15;;;12.68;;
11616;SDS011;5864;52.998;9.068;2022-12-11T09:17:45;26.50;;;13.52;;
11616;SDS011;5864;52.998;9.068;2022-12-11T09:20:12;23.20;;;12.32;;
11616;SDS011;5864;52.998;9.068;2022-12-11T09:22:40;23.63;;;13.93;;
11616;SDS011;5864;52.998;9.068;2022-12-11T09:25:07;22.40;;;12.20;;
11616;SDS011;5864;52.998;9.068;2022-12-11T09:27:35;22.38;;;12.88;;
11616;SDS011;5864;52.998;9.068;2022-12-11T09:30:05;24.17;;;12.52;;
11616;SDS011;5864;52.998;9.068;2022-12-11T09:32:33;20.98;;;11.70;;
11616;SDS011;5864;52.998;9.068;2022-12-11T09:35:01;25.08;;;12.45;;
11616;SDS011;5864;52.998;9.068;2022-12-11T09:37:29;21.52;;;11.85;;
11616;SDS011;5864;52.998;9.068;2022-12-11T09:39:56;21.20;;;11.07;;
11616;SDS011;5864;52.998;9.068;2022-12-11T09:42:24;21.92;;;12.35;;
11616;SDS011;5864;52.998;9.068;2022-12-11T09:45:02;22.17;;;11.63;;
11616;SDS011;5864;52.998;9.068;2022-12-11T09:47:38;22.17;;;11.55;;
11616;SDS011;5864;52.998;9.068;2022-12-11T09:50:10;24.30;;;12.73;;
11616;SDS011;5864;52.998;9.068;2022-12-11T09:52:44;21.70;;;11.73;;
11616;SDS011;5864;52.998;9.068;2022-12-11T09:55:21;22.50;;;11.82;;
11616;SDS011;5864;52.998;9.068;2022-12-11T09:57:52;26.30;;;13.40;;
11616;SDS011;5864;52.998;9.068;2022-12-11T10:00:30;20.98;;;12.75;;
11616;SDS011;5864;52.998;9.068;2022-12-11T10:03:19;25.08;;;13.13;;
11616;SDS011;5864;52.998;9.068;2022-12-11T10:06:06;27.17;;;12.57;;
11616;SDS011;5864;52.998;9.068;2022-12-11T10:08:42;24.52;;;12.40;;
11616;SDS011;5864;52.998;9.068;2022-12-11T10:11:28;21.45;;;12.43;;
11616;SDS011;5864;52.998;9.068;2022-12-11T10:14:16;22.63;;;11.27;;
11616;SDS011;5864;52.998;9.068;2022-12-11T10:16:53;44.05;;;22.38;;
11616;SDS011;5864;52.998;9.068;2022-12-11T10:19:26;30.25;;;15.10;;
11616;SDS011;5864;52.998;9.068;2022-12-11T10:21:55;22.73;;;12.43;;
11616;SDS011;5864;52.998;9.068;2022-12-11T10:24:24;24.52;;;11.23;;
11616;SDS011;5864;52.998;9.068;2022-12-11T10:26:58;22.67;;;11.45;;
11616;SDS011;5864;52.998;9.068;2022-12-11T10:29:34;29.38;;;13.10;;
11616;SDS011;5864;52.998;9.068;2022-12-11T10:32:03;22.20;;;11.18;;
11616;SDS011;5864;52.998;9.068;2022-12-11T10:34:41;21.42;;;10.75;;
11616;SDS011;5864;52.998;9.068;2022-12-11T10:37:11;48.05;;;27.52;;
11616;SDS011;5864;52.998;9.068;2022-12-11T10:39:40;34.83;;;18.45;;
11616;SDS011;5864;52.998;9.068;2022-12-11T10:42:12;21.65;;;11.50;;
11616;SDS011;5864;52.998;9.068;2022-12-11T10:44:53;21.25;;;10.63;;
11616;SDS011;5864;52.998;9.068;2022-12-11T10:47:23;22.15;;;11.30;;
11616;SDS011;5864;52.998;9.068;2022-12-11T10:49:52;20.33;;;11.07;;
11616;SDS011;5864;52.998;9.068;2022-12-11T10:52:22;26.05;;;14.02;;
11616;SDS011;5864;52.998;9.068;2022-12-11T10:54:55;22.42;;;12.43;;
11616;SDS011;5864;52.998;9.068;2022-12-11T10:57:26;23.83;;;12.52;;
11616;SDS011;5864;52.998;9.068;2022-12-11T10:59:55;18.88;;;10.98;;
11616;SDS011;5864;52.998;9.068;2022-12-11T11:02:27;25.13;;;11.40;;
11616;SDS011;5864;52.998;9.068;2022-12-11T11:04:57;23.83;;;12.40;;
11616;SDS011;5864;52.998;9.068;2022-12-11T11:07:26;26.77;;;13.23;;
11616;SDS011;5864;52.998;9.068;2022-12-11T11:10:09;25.23;;;14.23;;
11616;SDS011;5864;52.998;9.068;2022-12-11T11:12:42;19.50;;;10.98;;
11616;SDS011;5864;52.998;9.068;2022-12-11T11:15:11;21.83;;;11.25;;
11616;SDS011;5864;52.998;9.068;2022-12-11T11:17:43;22.20;;;11.80;;
11616;SDS011;5864;52.998;9.068;2022-12-11T11:20:13;21.88;;;10.82;;
11616;SDS011;5864;52.998;9.068;2022-12-11T11:22:44;26.10;;;13.02;;
11616;SDS011;5864;52.998;9.068;2022-12-11T11:25:16;22.10;;;11.20;;
11616;SDS011;5864;52.998;9.068;2022-12-11T11:27:47;21.23;;;11.52;;
11616;SDS011;5864;52.998;9.068;2022-12-11T11:30:19;22.60;;;12.60;;
11616;SDS011;5864;52.998;9.068;2022-12-11T11:32:51;22.02;;;10.85;;
11616;SDS011;5864;52.998;9.068;2022-12-11T11:35:21;23.70;;;11.10;;
11616;SDS011;5864;52.998;9.068;2022-12-11T11:37:53;20.77;;;11.90;;
11616;SDS011;5864;52.998;9.068;2022-12-11T11:40:27;37.65;;;22.70;;
11616;SDS011;5864;52.998;9.068;2022-12-11T11:43:00;28.05;;;14.98;;
11616;SDS011;5864;52.998;9.068;2022-12-11T11:45:34;20.15;;;11.32;;
11616;SDS011;5864;52.998;9.068;2022-12-11T11:48:10;22.95;;;11.48;;
11616;SDS011;5864;52.998;9.068;2022-12-11T11:50:46;20.95;;;11.00;;
11616;SDS011;5864;52.998;9.068;2022-12-11T11:53:18;18.80;;;11.70;;
11616;SDS011;5864;52.998;9.068;2022-12-11T11:55:53;18.60;;;10.52;;
11616;SDS011;5864;52.998;9.068;2022-12-11T11:58:30;22.33;;;11.55;;
11616;SDS011;5864;52.998;9.068;2022-12-11T12:01:03;21.90;;;11.98;;
11616;SDS011;5864;52.998;9.068;2022-12-11T12:03:32;20.77;;;11.48;;
11616;SDS011;5864;52.998;9.068;2022-12-11T12:06:01;18.90;;;10.52;;
11616;SDS011;5864;52.998;9.068;2022-12-11T12:08:39;25.30;;;11.73;;
11616;SDS011;5864;52.998;9.068;2022-12-11T12:11:12;19.65;;;11.25;;
11616;SDS011;5864;52.998;9.068;2022-12-11T12:13:48;19.40;;;10.27;;
11616;SDS011;5864;52.998;9.068;2022-12-11T12:16:26;20.77;;;11.52;;
11616;SDS011;5864;52.998;9.068;2022-12-11T12:19:02;18.55;;;10.63;;
11616;SDS011;5864;52.998;9.068;2022-12-11T12:21:39;19.75;;;10.10;;
11616;SDS011;5864;52.998;9.068;2022-12-11T12:24:15;20.67;;;10.50;;
11616;SDS011;5864;52.998;9.068;2022-12-11T12:26:51;22.60;;;12.13;;
11616;SDS011;5864;52.998;9.068;2022-12-11T12:29:24;25.55;;;12.77;;
11616;SDS011;5864;52.998;9.068;2022-12-11T12:32:04;23.15;;;13.55;;
11616;SDS011;5864;52.998;9.068;2022-12-11T12:34:51;26.60;;;14.13;;
11616;SDS011;5864;52.998;9.068;2022-12-11T12:37:39;27.42;;;12.82;;
11616;SDS011;5864;52.998;9.068;2022-12-11T12:40:14;24.90;;;12.68;;
11616;SDS011;5864;52.998;9.068;2022-12-11T12:42:48;24.25;;;12.15;;
11616;SDS011;5864;52.998;9.068;2022-12-11T12:45:23;25.73;;;12.90;;
11616;SDS011;5864;52.998;9.068;2022-12-11T12:47:54;24.50;;;12.65;;
11616;SDS011;5864;52.998;9.068;2022-12-11T12:50:24;25.77;;;12.27;;
11616;SDS011;5864;52.998;9.068;2022-12-11T12:53:03;25.55;;;13.98;;
11616;SDS011;5864;52.998;9.068;2022-12-11T12:55:32;25.40;;;13.20;;
11616;SDS011;5864;52.998;9.068;2022-12-11T12:58:02;27.23;;;13.27;;
11616;SDS011;5864;52.998;9.068;2022-12-11T13:00:32;26.08;;;13.63;;
11616;SDS011;5864;52.998;9.068;2022-12-11T13:03:01;30.23;;;15.75;;
11616;SDS011;5864;52.998;9.068;2022-12-11T13:05:40;31.67;;;16.33;;
11616;SDS011;5864;52.998;9.068;2022-12-11T13:08:10;29.13;;;15.98;;
11616;SDS011;5864;52.998;9.068;2022-12-11T13:10:39;28.75;;;14.50;;
11616;SDS011;5864;52.998;9.068;2022-12-11T13:16:08;30.52;;;15.00;;
11616;SDS011;5864;52.998;9.068;2022-12-11T13:18:51;28.42;;;15.18;;
11616;SDS011;5864;52.998;9.068;2022-12-11T13:21:26;29.45;;;14.98;;
11616;SDS011;5864;52.998;9.068;2022-12-11T13:24:11;28.83;;;13.88;;
11616;SDS011;5864;52.998;9.068;2022-12-11T13:26:42;28.00;;;13.90;;
11616;SDS011;5864;52.998;9.068;2022-12-11T13:32:18;27.15;;;14.48;;
11616;SDS011;5864;52.998;9.068;2022-12-11T13:34:52;28.05;;;15.07;;
11616;SDS011;5864;52.998;9.068;2022-12-11T13:37:25;29.10;;;14.60;;
11616;SDS011;5864;52.998;9.068;2022-12-11T13:39:57;27.80;;;15.13;;
11616;SDS011;5864;52.998;9.068;2022-12-11T13:42:26;29.02;;;14.77;;
11616;SDS011;5864;52.998;9.068;2022-12-11T13:44:57;28.77;;;14.75;;
11616;SDS011;5864;52.998;9.068;2022-12-11T13:47:26;27.95;;;14.02;;
11616;SDS011;5864;52.998;9.068;2022-12-11T13:49:59;28.27;;;15.68;;
11616;SDS011;5864;52.998;9.068;2022-12-11T13:52:38;35.53;;;17.23;;
11616;SDS011;5864;52.998;9.068;2022-12-11T13:55:13;28.95;;;14.77;;
11616;SDS011;5864;52.998;9.068;2022-12-11T13:57:47;31.10;;;15.40;;
11616;SDS011;5864;52.998;9.068;2022-12-11T14:00:18;29.67;;;14.90;;
11616;SDS011;5864;52.998;9.068;2022-12-11T14:02:47;30.20;;;15.23;;
11616;SDS011;5864;52.998;9.068;2022-12-11T14:05:16;27.52;;;13.57;;
11616;SDS011;5864;52.998;9.068;2022-12-11T14:07:47;28.58;;;15.25;;
11616;SDS011;5864;52.998;9.068;2022-12-11T14:10:20;27.13;;;14.68;;
11616;SDS011;5864;52.998;9.068;2022-12-11T14:12:50;30.88;;;15.13;;
11616;SDS011;5864;52.998;9.068;2022-12-11T14:15:21;32.63;;;16.65;;
11616;SDS011;5864;52.998;9.068;2022-12-11T14:17:49;32.08;;;16.15;;
11616;SDS011;5864;52.998;9.068;2022-12-11T14:20:18;30.80;;;14.98;;
11616;SDS011;5864;52.998;9.068;2022-12-11T14:22:49;30.58;;;14.73;;
11616;SDS011;5864;52.998;9.068;2022-12-11T14:25:21;29.88;;;15.15;;
11616;SDS011;5864;52.998;9.068;2022-12-11T14:27:51;31.77;;;15.13;;
11616;SDS011;5864;52.998;9.068;2022-12-11T14:30:22;32.42;;;15.82;;
11616;SDS011;5864;52.998;9.068;2022-12-11T14:32:50;29.85;;;15.80;;
11616;SDS011;5864;52.998;9.068;2022-12-11T14:35:23;28.40;;;15.25;;
11616;SDS011;5864;52.998;9.068;2022-12-11T14:37:54;27.33;;;14.90;;
11616;SDS011;5864;52.998;9.068;2022-12-11T14:40:24;30.27;;;15.30;;
11616;SDS011;5864;52.998;9.068;2022-12-11T14:42:56;28.90;;;15.00;;
11616;SDS011;5864;52.998;9.068;2022-12-11T14:45:28;30.98;;;15.65;;
11616;SDS011;5864;52.998;9.068;2022-12-11T14:47:59;29.83;;;15.70;;
11616;SDS011;5864;52.998;9.068;2022-12-11T14:50:33;32.10;;;15.32;;
11616;SDS011;5864;52.998;9.068;2022-12-11T14:53:08;33.78;;;18.85;;
11616;SDS011;5864;52.998;9.068;2022-12-11T14:55:41;47.20;;;28.58;;
11616;SDS011;5864;52.998;9.068;2022-12-11T14:58:13;47.88;;;27.20;;
11616;SDS011;5864;52.998;9.068;2022-12-11T15:00:43;46.30;;;31.58;;